D/T METAR WX W/DIR W/SPE G/SPE TEMP DEWP
19/03/19 03:20 EGCN 190320Z AUTO 15003KT 5000 BR BKN030/// OVC035/// 08/07 Q1024 BR SSE (150°) 3.5mph 8°C 7°C
19/03/19 02:50 EGCN 190250Z AUTO 19004KT 4600 BR BKN028/// OVC034/// 07/07 Q1024 BR S (190°) 4.6mph 7°C 7°C
19/03/19 02:20 EGCN 190220Z AUTO 18003KT 6000 BKN032/// OVC037/// 07/07 Q1024 S (180°) 3.5mph 7°C 7°C
19/03/19 01:50 EGCN 190150Z AUTO 18002KT 8000 SCT020/// BKN026/// OVC034/// 08/07 Q1024 S (180°) 2.3mph 8°C 7°C
19/03/19 01:20 EGCN 190120Z AUTO 18003KT 7000 FEW017/// BKN033/// OVC039/// 07/07 Q1024 S (180°) 3.5mph 7°C 7°C
19/03/19 00:50 EGCN 190050Z AUTO 17003KT 6000 SCT018/// OVC037/// 07/07 Q1024 S (170°) 3.5mph 7°C 7°C
19/03/19 00:20 EGCN 190020Z AUTO 19003KT 4500 BR FEW016/// BKN022/// BKN027/// 07/07 Q1023 RERA BR S (190°) 3.5mph 7°C 7°C
18/03/19 23:50 EGCN 182350Z AUTO 19004KT 5000 HZ FEW017/// BKN024/// BKN029/// 07/06 Q1023 RERA HZ S (190°) 4.6mph 7°C 6°C
18/03/19 23:20 EGCN 182320Z 19005KT 6000 -DZ FEW012 SCT019 OVC025 07/06 Q1023 -DZ S (190°) 5.8mph 7°C 6°C
18/03/19 22:20 EGCN 182220Z 18004KT 9999 BKN020 OVC025 08/06 Q1023 S (180°) 4.6mph 8°C 6°C
18/03/19 21:50 EGCN 182150Z 19005KT 9999 BKN021 OVC027 08/06 Q1023 S (190°) 5.8mph 8°C 6°C
18/03/19 20:50 EGCN 182050Z 22005KT 9999 BKN027 08/05 Q1023 SW (220°) 5.8mph 8°C 5°C
18/03/19 20:20 EGCN 182020Z 24006KT 9999 FEW031 BKN036 09/06 Q1023 WSW (240°) 6.9mph 9°C 6°C
18/03/19 19:50 EGCN 181950Z 23006KT 9999 SCT025 BKN031 09/05 Q1022 SW (230°) 6.9mph 9°C 5°C
18/03/19 19:20 EGCN 181920Z 22005KT 9999 BKN023 08/05 Q1022 SW (220°) 5.8mph 8°C 5°C
18/03/19 18:50 EGCN 181850Z 22004KT 9999 BKN028 09/05 Q1022 SW (220°) 4.6mph 9°C 5°C
18/03/19 18:20 EGCN 181820Z 22005KT 9999 SCT028 BKN033 09/05 Q1022 SW (220°) 5.8mph 9°C 5°C
18/03/19 17:50 EGCN 181750Z 25005KT 9999 SCT033 BKN038 10/05 Q1021 WSW (250°) 5.8mph 10°C 5°C
18/03/19 17:20 EGCN 181720Z 25007KT 9999 SCT028 BKN034 10/04 Q1021 WSW (250°) 8.1mph 10°C 4°C
18/03/19 16:50 EGCN 181650Z 23007KT 9999 SCT029 BKN035 10/04 Q1021 SW (230°) 8.1mph 10°C 4°C
18/03/19 15:50 EGCN 181550Z 24009KT 9999 SCT025 BKN032 10/05 Q1020 WSW (240°) 10.4mph 10°C 5°C
18/03/19 15:20 EGCN 181520Z 25010KT 9999 FEW026 SCT032 10/04 Q1020 WSW (250°) 11.5mph 10°C 4°C
18/03/19 14:50 EGCN 181450Z 26013KT 9999 SCT027 BKN038 10/04 Q1020 W (260°) 15.0mph 10°C 4°C
18/03/19 14:20 EGCN 181420Z 25011KT 9999 SCT022 BKN028 10/04 Q1020 WSW (250°) 12.7mph 10°C 4°C
18/03/19 13:20 EGCN 181320Z 26005KT 220V300 9999 SCT034 BKN039 BKN048 10/05 Q1020 RERA W (260°) 5.8mph 10°C 5°C
18/03/19 12:50 EGCN 181250Z 28012KT 200V320 9999 SCT030 BKN035 BKN042 09/04 Q1020 W (280°) 13.8mph 9°C 4°C
18/03/19 12:20 EGCN 181220Z 26008KT 220V300 9999 FEW034 SCT049 11/02 Q1020 W (260°) 9.2mph 11°C 2°C
18/03/19 11:20 EGCN 181120Z 28009KT 9999 SCT029 10/03 Q1020 W (280°) 10.4mph 10°C 3°C
18/03/19 10:50 EGCN 181050Z 30011KT 9999 SCT027 11/04 Q1019 WNW (300°) 12.7mph 11°C 4°C
18/03/19 10:20 EGCN 181020Z 28012KT 250V310 9999 FEW024 SCT031 BKN046 10/03 Q1019 W (280°) 13.8mph 10°C 3°C
18/03/19 09:50 EGCN 180950Z 28011KT 9999 FEW021 SCT049 10/04 Q1019 W (280°) 12.7mph 10°C 4°C
18/03/19 09:20 EGCN 180920Z 28011KT CAVOK 09/05 Q1019 W (280°) 12.7mph 9°C 5°C
18/03/19 08:50 EGCN 180850Z 27006KT 230V310 CAVOK 08/05 Q1019 W (270°) 6.9mph 8°C 5°C
18/03/19 08:20 EGCN 180820Z 26006KT CAVOK 07/04 Q1018 W (260°) 6.9mph 7°C 4°C
18/03/19 07:50 EGCN 180750Z 26006KT 9999 FEW030 07/04 Q1018 W (260°) 6.9mph 7°C 4°C
18/03/19 06:50 EGCN 180650Z 24006KT 9999 SCT024 BKN030 04/02 Q1018 WSW (240°) 6.9mph 4°C 2°C
18/03/19 06:20 EGCN 180620Z 25008KT 9999 FEW033 SCT039 05/02 Q1017 WSW (250°) 9.2mph 5°C 2°C
18/03/19 05:50 EGCN 180550Z 26005KT 9999 SCT043 05/03 Q1017 W (260°) 5.8mph 5°C 3°C
18/03/19 04:50 EGCN 180450Z 26007KT CAVOK 05/02 Q1017 W (260°) 8.1mph 5°C 2°C
18/03/19 04:20 EGCN 180420Z AUTO 27009KT 9999 NCD 04/02 Q1016 W (270°) 10.4mph 4°C 2°C
18/03/19 03:50 EGCN 180350Z AUTO 26007KT 9999 NCD 04/01 Q1016 W (260°) 8.1mph 4°C 1°C
18/03/19 03:20 EGCN 180320Z AUTO 28009KT 9999 NCD 05/02 Q1016 W (280°) 10.4mph 5°C 2°C
18/03/19 02:50 EGCN 180250Z AUTO 28008KT 9999 NCD 06/02 Q1016 W (280°) 9.2mph 6°C 2°C
18/03/19 02:20 EGCN 180220Z AUTO 28006KT 9999 SCT039/// BKN047/// 05/02 Q1016 W (280°) 6.9mph 5°C 2°C
18/03/19 01:50 EGCN 180150Z AUTO 27006KT 9999 NCD 06/03 Q1015 W (270°) 6.9mph 6°C 3°C
17/03/19 23:50 EGCN 172350Z 26007KT 9999 FEW039 06/03 Q1014 W (260°) 8.1mph 6°C 3°C
17/03/19 23:20 EGCN 172320Z 28008KT 9999 FEW045 06/03 Q1013 W (280°) 9.2mph 6°C 3°C
17/03/19 22:50 EGCN 172250Z 28008KT CAVOK 05/03 Q1013 W (280°) 9.2mph 5°C 3°C
17/03/19 21:50 EGCN 172150Z 30008KT CAVOK 06/02 Q1012 WNW (300°) 9.2mph 6°C 2°C
17/03/19 21:20 EGCN 172120Z 29016KT 9999 FEW043 07/03 Q1011 WNW (290°) 18.4mph 7°C 3°C
17/03/19 20:50 EGCN 172050Z 30011KT CAVOK 06/03 Q1010 WNW (300°) 12.7mph 6°C 3°C
17/03/19 20:20 EGCN 172020Z 28011KT CAVOK 07/03 Q1010 W (280°) 12.7mph 7°C 3°C
17/03/19 19:50 EGCN 171950Z 28011KT CAVOK 07/02 Q1009 W (280°) 12.7mph 7°C 2°C
17/03/19 19:20 EGCN 171920Z 28010KT CAVOK 07/02 Q1009 W (280°) 11.5mph 7°C 2°C
17/03/19 18:50 EGCN 171850Z 28011KT CAVOK 07/01 Q1008 W (280°) 12.7mph 7°C 1°C
17/03/19 18:20 EGCN 171820Z 28010KT 9999 FEW031 07/01 Q1007 W (280°) 11.5mph 7°C 1°C
17/03/19 17:50 EGCN 171750Z 27013KT 9999 SCT031 SCT037 08/02 Q1007 W (270°) 15.0mph 8°C 2°C
17/03/19 17:20 EGCN 171720Z 27013KT 9999 FEW033 08/02 Q1006 W (270°) 15.0mph 8°C 2°C
17/03/19 16:50 EGCN 171650Z 28016KT 9999 FEW035 09/01 Q1006 W (280°) 18.4mph 9°C 1°C
17/03/19 16:20 EGCN 171620Z 28015G25KT 9999 FEW037 10/01 Q1005 W (280°) 17.3mph 28.8mph 10°C 1°C
17/03/19 15:20 EGCN 171520Z 27017KT 9999 FEW041 09/01 Q1004 W (270°) 19.6mph 9°C 1°C
17/03/19 14:50 EGCN 171450Z 27019KT 9999 FEW041 SCT049 09/M00 Q1004 W (270°) 21.9mph 9°C 0°C
17/03/19 14:20 EGCN 171420Z 27022KT 240V300 9999 SCT040 10/00 Q1003 W (270°) 25.3mph 10°C 0°C
17/03/19 13:20 EGCN 171320Z 28017G27KT 230V310 9999 FEW037 09/M01 Q1003 W (280°) 19.6mph 31.1mph 9°C -1°C
17/03/19 12:50 EGCN 171250Z 27021KT 9999 FEW029 09/01 Q1003 W (270°) 24.2mph 9°C 1°C
17/03/19 12:20 EGCN 171220Z 26016KT 9999 VCSH FEW012 FEW018CB SCT029 06/02 Q1003 VCSH W (260°) 18.4mph 6°C 2°C
17/03/19 11:20 EGCN 171120Z 27018KT 9999 -SHRA FEW018CB SCT033 07/01 Q1002 -SHRA W (270°) 20.7mph 7°C 1°C
17/03/19 10:50 EGCN 171050Z 27020G31KT 9999 FEW021 SCT030 07/01 Q1001 W (270°) 23.0mph 35.7mph 7°C 1°C
17/03/19 10:20 EGCN 171020Z 26018KT 9999 FEW026 SCT038 07/01 Q1001 W (260°) 20.7mph 7°C 1°C
17/03/19 09:50 EGCN 170950Z 26019KT 9999 FEW029 SCT034 07/02 Q1001 W (260°) 21.9mph 7°C 2°C
17/03/19 09:20 EGCN 170920Z 26018KT 9999 FEW030 SCT039 07/01 Q1000 W (260°) 20.7mph 7°C 1°C
17/03/19 08:50 EGCN 170850Z 27016KT 9999 FEW029 06/01 Q1000 W (270°) 18.4mph 6°C 1°C
17/03/19 07:50 EGCN 170750Z 26012KT 9999 FEW027 06/01 Q0999 W (260°) 13.8mph 6°C 1°C
17/03/19 07:20 EGCN 170720Z 27014KT CAVOK 04/00 Q0999 W (270°) 16.1mph 4°C 0°C
17/03/19 06:50 EGCN 170650Z 26015KT 9999 FEW017 05/01 Q0998 W (260°) 17.3mph 5°C 1°C
17/03/19 06:20 EGCN 170620Z 25009KT 230V300 9999 FEW015 05/01 Q0998 WSW (250°) 10.4mph 5°C 1°C
17/03/19 05:50 EGCN 170550Z 26010KT 9999 FEW018 05/01 Q0997 W (260°) 11.5mph 5°C 1°C
17/03/19 05:20 EGCN 170520Z 25009KT CAVOK 05/01 Q0997 WSW (250°) 10.4mph 5°C 1°C
17/03/19 04:50 EGCN 170450Z 26010KT 9999 FEW023 05/01 Q0996 W (260°) 11.5mph 5°C 1°C
17/03/19 04:20 EGCN 170420Z AUTO 27006KT 230V300 9999 BKN023/// 05/02 Q0996 W (270°) 6.9mph 5°C 2°C
17/03/19 03:50 EGCN 170350Z AUTO 26009KT 9999 FEW024/// 05/01 Q0996 W (260°) 10.4mph 5°C 1°C
17/03/19 03:20 EGCN 170320Z AUTO 27009KT 240V320 9999 SCT022/// SCT034/// 05/01 Q0995 W (270°) 10.4mph 5°C 1°C
17/03/19 02:50 EGCN 170250Z AUTO 28007KT 240V320 9999 BKN022/// BKN028/// 06/02 Q0995 W (280°) 8.1mph 6°C 2°C
17/03/19 02:20 EGCN 170220Z 25006KT 230V290 9999 BKN022 05/02 Q0995 WSW (250°) 6.9mph 5°C 2°C
17/03/19 01:50 EGCN 170150Z 25005KT 9999 FEW023 SCT030 05/01 Q0995 WSW (250°) 5.8mph 5°C 1°C
17/03/19 01:20 EGCN 170120Z 26009KT CAVOK 04/01 Q0994 W (260°) 10.4mph 4°C 1°C
17/03/19 00:50 EGCN 170050Z 24007KT 9999 SCT022 05/02 Q0994 WSW (240°) 8.1mph 5°C 2°C
17/03/19 00:20 EGCN 170020Z 25010KT CAVOK 05/02 Q0993 WSW (250°) 11.5mph 5°C 2°C
16/03/19 23:50 EGCN 162350Z 24010KT 9999 SCT023 06/02 Q0993 WSW (240°) 11.5mph 6°C 2°C
16/03/19 23:20 EGCN 162320Z 25011KT 9999 FEW026 06/03 Q0993 WSW (250°) 12.7mph 6°C 3°C
16/03/19 22:50 EGCN 162250Z 26011KT CAVOK 06/02 Q0993 W (260°) 12.7mph 6°C 2°C
16/03/19 22:20 EGCN 162220Z 27012KT 9999 FEW027 06/03 Q0992 W (270°) 13.8mph 6°C 3°C
16/03/19 21:50 EGCN 162150Z 27010KT 240V310 CAVOK 06/02 Q0992 W (270°) 11.5mph 6°C 2°C
16/03/19 21:20 EGCN 162120Z 28010KT 250V310 9999 FEW025 07/03 Q0992 W (280°) 11.5mph 7°C 3°C
16/03/19 20:50 EGCN 162050Z 26012KT 9999 FEW024 07/03 Q0991 W (260°) 13.8mph 7°C 3°C
16/03/19 20:20 EGCN 162020Z 27016KT 9999 SCT023 SCT030 07/03 Q0991 W (270°) 18.4mph 7°C 3°C
16/03/19 19:20 EGCN 161920Z 25016KT 9999 FEW024 BKN045 08/04 Q0990 WSW (250°) 18.4mph 8°C 4°C
16/03/19 18:50 EGCN 161850Z 27022G32KT 9999 -RA FEW018 SCT024 BKN031 09/06 Q0989 RERA -RA W (270°) 25.3mph 36.8mph 9°C 6°C
16/03/19 18:20 EGCN 161820Z 22021KT 9999 FEW025 SCT044 11/08 Q0988 RERA SW (220°) 24.2mph 11°C 8°C
16/03/19 17:20 EGCN 161720Z 21022KT 9999 -RA FEW021 SCT034 BKN040 11/09 Q0988 RERA -RA SSW (210°) 25.3mph 11°C 9°C
16/03/19 16:50 EGCN 161650Z 21023G34KT 9999 RA SCT020 BKN026 BKN033 11/09 Q0988 RA SSW (210°) 26.5mph 39.1mph 11°C 9°C
16/03/19 16:20 EGCN 161620Z 21024KT 9999 BKN017 BKN024 13/10 Q0989 SSW (210°) 27.6mph 13°C 10°C
16/03/19 15:50 EGCN 161550Z 21024G36KT 9999 SCT017 BKN023 BKN028 13/10 Q0989 SSW (210°) 27.6mph 41.4mph 13°C 10°C
16/03/19 15:20 EGCN 161520Z 21025KT 9999 BKN020 BKN027 13/09 Q0990 SSW (210°) 28.8mph 13°C 9°C
16/03/19 14:50 EGCN 161450Z 21027KT 9999 BKN021 BKN027 13/09 Q0990 SSW (210°) 31.1mph 13°C 9°C
16/03/19 14:20 EGCN 161420Z 21025G37KT 9999 BKN021 BKN027 13/09 Q0991 SSW (210°) 28.8mph 42.6mph 13°C 9°C
16/03/19 13:20 EGCN 161320Z 21022G33KT 9999 SCT020 BKN025 12/09 Q0992 SSW (210°) 25.3mph 38.0mph 12°C 9°C
16/03/19 12:50 EGCN 161250Z 22024KT 9999 SCT020 BKN027 13/09 Q0992 SW (220°) 27.6mph 13°C 9°C
16/03/19 12:20 EGCN 161220Z 22026KT 9999 SCT019 BKN024 12/10 Q0993 SW (220°) 29.9mph 12°C 10°C
16/03/19 11:50 EGCN 161150Z 22027KT 9999 SCT019 BKN025 12/10 Q0993 SW (220°) 31.1mph 12°C 10°C
16/03/19 11:20 EGCN 161120Z 22026G37KT 9999 -RA SCT019 BKN025 12/10 Q0994 -RA SW (220°) 29.9mph 42.6mph 12°C 10°C
16/03/19 10:50 EGCN 161050Z 21026KT 9999 SCT021 BKN026 12/10 Q0994 SSW (210°) 29.9mph 12°C 10°C
16/03/19 10:20 EGCN 161020Z 22024KT 9999 -RA SCT021 BKN027 12/09 Q0995 -RA SW (220°) 27.6mph 12°C 9°C
16/03/19 09:20 EGCN 160920Z 22020KT 9999 SCT019 BKN024 12/09 Q0995 SW (220°) 23.0mph 12°C 9°C
16/03/19 08:20 EGCN 160820Z 21019KT 9999 -RA SCT017 BKN024 11/09 Q0996 -RA SSW (210°) 21.9mph 11°C 9°C
16/03/19 07:50 EGCN 160750Z 20014KT 9999 -RA SCT017 BKN022 11/10 Q0996 -RA SSW (200°) 16.1mph 11°C 10°C
16/03/19 07:20 EGCN 160720Z 19015KT 9999 -RA SCT018 OVC023 11/10 Q0996 -RA S (190°) 17.3mph 11°C 10°C
16/03/19 06:50 EGCN 160650Z 20017KT 180V290 9999 -RA BKN018 12/11 Q0997 -RA SSW (200°) 19.6mph 12°C 11°C
16/03/19 06:20 EGCN 160620Z 20013KT 9999 BKN020 OVC025 10/10 Q0997 SSW (200°) 15.0mph 10°C 10°C
16/03/19 05:50 EGCN 160550Z AUTO 17009KT 9999 -RA BKN019/// OVC025/// 09/09 Q0998 RERA -RA S (170°) 10.4mph 9°C 9°C
16/03/19 05:20 EGCN 160520Z AUTO 15007KT 7000 RA FEW002/// SCT008/// BKN018/// 08/08 Q0999 RA SSE (150°) 8.1mph 8°C 8°C
16/03/19 04:50 EGCN 160450Z AUTO 13006KT 9000 -RA OVC001/// 07/07 Q0999 RERA -RA SE (130°) 6.9mph 7°C 7°C
16/03/19 04:20 EGCN 160420Z AUTO 12006KT 8000 -RA BKN001/// OVC013/// 06/06 Q1000 -RA ESE (120°) 6.9mph 6°C 6°C
16/03/19 03:50 EGCN 160350Z 12005KT 090V160 5000 RA FEW007 BKN010 OVC015 06/06 Q1001 RA ESE (120°) 5.8mph 6°C 6°C
16/03/19 03:20 EGCN 160320Z 12004KT 9999 RA BKN025 06/06 Q1002 RA ESE (120°) 4.6mph 6°C 6°C
16/03/19 02:50 EGCN 160250Z 14004KT 9999 RA BKN025 07/06 Q1003 RA SE (140°) 4.6mph 7°C 6°C
16/03/19 02:20 EGCN 160220Z 16005KT 9999 RA BKN025 07/06 Q1004 RA SSE (160°) 5.8mph 7°C 6°C
16/03/19 01:50 EGCN 160150Z 16005KT 9999 RA BKN025 07/06 Q1005 RA SSE (160°) 5.8mph 7°C 6°C
16/03/19 01:20 EGCN 160120Z 17006KT 9999 FEW038 06/05 Q1005 S (170°) 6.9mph 6°C 5°C
16/03/19 00:50 EGCN 160050Z 19008KT 9999 FEW038 07/04 Q1006 S (190°) 9.2mph 7°C 4°C
16/03/19 00:20 EGCN 160020Z 19008KT 9999 FEW038 08/04 Q1006 S (190°) 9.2mph 8°C 4°C
15/03/19 23:50 EGCN 152350Z 21009KT 9999 FEW038 08/03 Q1007 SSW (210°) 10.4mph 8°C 3°C
15/03/19 23:20 EGCN 152320Z 21009KT 9999 FEW038 08/03 Q1007 SSW (210°) 10.4mph 8°C 3°C
15/03/19 22:50 EGCN 152250Z 21010KT 9999 FEW038 07/03 Q1007 SSW (210°) 11.5mph 7°C 3°C
15/03/19 22:20 EGCN 152220Z 18008KT CAVOK 07/02 Q1008 S (180°) 9.2mph 7°C 2°C
15/03/19 21:50 EGCN 152150Z 23008KT CAVOK 07/02 Q1008 SW (230°) 9.2mph 7°C 2°C
15/03/19 21:20 EGCN 152120Z 25010KT CAVOK 07/02 Q1008 WSW (250°) 11.5mph 7°C 2°C
15/03/19 20:50 EGCN 152050Z 25010KT 9999 FEW040 08/02 Q1007 WSW (250°) 11.5mph 8°C 2°C
15/03/19 20:20 EGCN 152020Z 24009KT 9999 FEW040 08/02 Q1008 WSW (240°) 10.4mph 8°C 2°C
15/03/19 19:50 EGCN 151950Z 26010KT CAVOK 09/01 Q1007 W (260°) 11.5mph 9°C 1°C
15/03/19 18:50 EGCN 151850Z 29013G23KT 9999 FEW043 08/01 Q1007 WNW (290°) 15.0mph 26.5mph 8°C 1°C
15/03/19 18:20 EGCN 151820Z 28017G28KT 9999 FEW043 09/01 Q1006 W (280°) 19.6mph 32.2mph 9°C 1°C
15/03/19 17:20 EGCN 151720Z 29016KT 9999 SCT039 BKN047 09/02 Q1006 WNW (290°) 18.4mph 9°C 2°C
15/03/19 16:50 EGCN 151650Z 28022G38KT 9999 SCT042 10/02 Q1005 W (280°) 25.3mph 43.7mph 10°C 2°C